sensor_id;sensor_type;location;lat;lon;timestamp;P1;durP1;ratioP1;P2;durP2;ratioP2
48791;SDS011;34587;48.816;9.420;2023-06-22T04:15:30;11.45;;;6.65;;
48791;SDS011;34587;48.816;9.420;2023-06-22T04:17:55;14.38;;;6.25;;
48791;SDS011;34587;48.816;9.420;2023-06-22T04:20:22;10.88;;;6.68;;
48791;SDS011;34587;48.816;9.420;2023-06-22T04:22:47;13.93;;;5.72;;
48791;SDS011;34587;48.816;9.420;2023-06-22T04:25:12;10.35;;;6.70;;
48791;SDS011;34587;48.816;9.420;2023-06-22T04:27:38;8.55;;;5.90;;
48791;SDS011;34587;48.816;9.420;2023-06-22T04:30:05;8.48;;;5.60;;
48791;SDS011;34587;48.816;9.420;2023-06-22T04:32:34;8.88;;;5.60;;
48791;SDS011;34587;48.816;9.420;2023-06-22T04:35:01;9.38;;;6.13;;
48791;SDS011;34587;48.816;9.420;2023-06-22T04:37:27;10.25;;;6.15;;
48791;SDS011;34587;48.816;9.420;2023-06-22T04:39:52;12.57;;;6.78;;
48791;SDS011;34587;48.816;9.420;2023-06-22T04:42:18;11.35;;;6.28;;
48791;SDS011;34587;48.816;9.420;2023-06-22T04:44:43;10.75;;;6.75;;
48791;SDS011;34587;48.816;9.420;2023-06-22T04:47:08;8.80;;;6.15;;
48791;SDS011;34587;48.816;9.420;2023-06-22T04:49:34;10.57;;;5.65;;
48791;SDS011;34587;48.816;9.420;2023-06-22T04:52:03;13.07;;;6.15;;
48791;SDS011;34587;48.816;9.420;2023-06-22T04:54:31;21.60;;;6.20;;
48791;SDS011;34587;48.816;9.420;2023-06-22T04:57:00;9.27;;;6.63;;
48791;SDS011;34587;48.816;9.420;2023-06-22T04:59:27;9.55;;;6.85;;
48791;SDS011;34587;48.816;9.420;2023-06-22T05:01:58;8.20;;;6.07;;
48791;SDS011;34587;48.816;9.420;2023-06-22T05:04:28;12.68;;;6.30;;
48791;SDS011;34587;48.816;9.420;2023-06-22T05:06:56;8.57;;;6.18;;
48791;SDS011;34587;48.816;9.420;2023-06-22T05:09:22;7.30;;;5.63;;
48791;SDS011;34587;48.816;9.420;2023-06-22T05:11:48;11.30;;;6.38;;
48791;SDS011;34587;48.816;9.420;2023-06-22T05:14:14;13.57;;;6.07;;
48791;SDS011;34587;48.816;9.420;2023-06-22T05:16:40;11.50;;;5.50;;
48791;SDS011;34587;48.816;9.420;2023-06-22T05:19:06;9.98;;;6.00;;
48791;SDS011;34587;48.816;9.420;2023-06-22T05:21:32;8.07;;;5.43;;
48791;SDS011;34587;48.816;9.420;2023-06-22T05:23:57;7.78;;;5.15;;
48791;SDS011;34587;48.816;9.420;2023-06-22T05:26:28;7.82;;;5.45;;
48791;SDS011;34587;48.816;9.420;2023-06-22T05:28:55;6.88;;;5.70;;
48791;SDS011;34587;48.816;9.420;2023-06-22T05:31:21;8.02;;;5.75;;
48791;SDS011;34587;48.816;9.420;2023-06-22T05:33:46;7.63;;;5.57;;
48791;SDS011;34587;48.816;9.420;2023-06-22T05:36:13;8.60;;;5.15;;
48791;SDS011;34587;48.816;9.420;2023-06-22T05:38:39;11.70;;;4.65;;
48791;SDS011;34587;48.816;9.420;2023-06-22T05:41:05;9.55;;;5.05;;
48791;SDS011;34587;48.816;9.420;2023-06-22T05:43:30;17.27;;;6.13;;
48791;SDS011;34587;48.816;9.420;2023-06-22T05:45:56;10.80;;;5.40;;
48791;SDS011;34587;48.816;9.420;2023-06-22T05:48:22;8.82;;;4.05;;
48791;SDS011;34587;48.816;9.420;2023-06-22T05:50:48;6.40;;;4.55;;
48791;SDS011;34587;48.816;9.420;2023-06-22T05:53:13;7.53;;;4.30;;
48791;SDS011;34587;48.816;9.420;2023-06-22T05:55:38;6.43;;;4.22;;
48791;SDS011;34587;48.816;9.420;2023-06-22T05:58:04;9.45;;;4.53;;
48791;SDS011;34587;48.816;9.420;2023-06-22T06:00:29;5.38;;;4.30;;
48791;SDS011;34587;48.816;9.420;2023-06-22T06:02:55;7.97;;;4.45;;
48791;SDS011;34587;48.816;9.420;2023-06-22T06:05:21;7.28;;;4.22;;
48791;SDS011;34587;48.816;9.420;2023-06-22T06:07:48;8.68;;;4.13;;
48791;SDS011;34587;48.816;9.420;2023-06-22T06:10:13;6.15;;;3.53;;
48791;SDS011;34587;48.816;9.420;2023-06-22T06:12:38;4.63;;;4.07;;
48791;SDS011;34587;48.816;9.420;2023-06-22T06:15:04;4.00;;;3.25;;
48791;SDS011;34587;48.816;9.420;2023-06-22T06:17:30;6.75;;;4.10;;
48791;SDS011;34587;48.816;9.420;2023-06-22T06:19:55;6.43;;;3.60;;
48791;SDS011;34587;48.816;9.420;2023-06-22T06:22:21;3.97;;;3.33;;
48791;SDS011;34587;48.816;9.420;2023-06-22T06:24:48;5.05;;;3.67;;
48791;SDS011;34587;48.816;9.420;2023-06-22T06:27:13;3.67;;;3.38;;
48791;SDS011;34587;48.816;9.420;2023-06-22T06:29:39;6.80;;;3.78;;
48791;SDS011;34587;48.816;9.420;2023-06-22T06:32:04;5.25;;;3.60;;
48791;SDS011;34587;48.816;9.420;2023-06-22T06:34:30;6.22;;;3.58;;
48791;SDS011;34587;48.816;9.420;2023-06-22T06:36:55;6.70;;;4.30;;
48791;SDS011;34587;48.816;9.420;2023-06-22T06:39:21;5.05;;;3.60;;
48791;SDS011;34587;48.816;9.420;2023-06-22T06:41:46;5.45;;;3.92;;
48791;SDS011;34587;48.816;9.420;2023-06-22T06:44:11;4.35;;;3.28;;
48791;SDS011;34587;48.816;9.420;2023-06-22T06:46:37;5.18;;;3.95;;
48791;SDS011;34587;48.816;9.420;2023-06-22T06:49:02;5.30;;;3.65;;
48791;SDS011;34587;48.816;9.420;2023-06-22T06:51:28;8.10;;;3.78;;
48791;SDS011;34587;48.816;9.420;2023-06-22T06:53:54;6.28;;;3.08;;
48791;SDS011;34587;48.816;9.420;2023-06-22T06:56:19;4.00;;;3.03;;
48791;SDS011;34587;48.816;9.420;2023-06-22T06:58:45;6.53;;;3.65;;
48791;SDS011;34587;48.816;9.420;2023-06-22T07:01:13;4.45;;;2.50;;
48791;SDS011;34587;48.816;9.420;2023-06-22T07:03:39;2.53;;;2.20;;
48791;SDS011;34587;48.816;9.420;2023-06-22T07:06:04;2.65;;;2.10;;
48791;SDS011;34587;48.816;9.420;2023-06-22T07:08:29;3.78;;;2.13;;
48791;SDS011;34587;48.816;9.420;2023-06-22T07:10:55;2.30;;;2.10;;
48791;SDS011;34587;48.816;9.420;2023-06-22T07:13:20;2.63;;;2.20;;
48791;SDS011;34587;48.816;9.420;2023-06-22T07:15:46;2.13;;;2.00;;
48791;SDS011;34587;48.816;9.420;2023-06-22T07:18:11;4.72;;;2.40;;
48791;SDS011;34587;48.816;9.420;2023-06-22T07:20:37;5.82;;;2.20;;
48791;SDS011;34587;48.816;9.420;2023-06-22T07:23:04;4.20;;;2.60;;
48791;SDS011;34587;48.816;9.420;2023-06-22T07:25:29;4.80;;;2.15;;
48791;SDS011;34587;48.816;9.420;2023-06-22T07:28:02;3.13;;;1.67;;
48791;SDS011;34587;48.816;9.420;2023-06-22T07:30:29;2.20;;;1.90;;
48791;SDS011;34587;48.816;9.420;2023-06-22T07:32:56;3.45;;;1.77;;
48791;SDS011;34587;48.816;9.420;2023-06-22T07:35:22;3.28;;;1.77;;
48791;SDS011;34587;48.816;9.420;2023-06-22T07:37:48;4.22;;;1.77;;
48791;SDS011;34587;48.816;9.420;2023-06-22T07:40:13;5.55;;;2.40;;
48791;SDS011;34587;48.816;9.420;2023-06-22T07:42:39;3.03;;;1.77;;
48791;SDS011;34587;48.816;9.420;2023-06-22T07:45:04;5.38;;;2.20;;
48791;SDS011;34587;48.816;9.420;2023-06-22T07:47:33;4.88;;;2.00;;
48791;SDS011;34587;48.816;9.420;2023-06-22T07:50:00;4.70;;;2.38;;
48791;SDS011;34587;48.816;9.420;2023-06-22T07:52:29;6.05;;;2.13;;
48791;SDS011;34587;48.816;9.420;2023-06-22T07:54:55;4.10;;;1.67;;
48791;SDS011;34587;48.816;9.420;2023-06-22T07:57:21;4.03;;;1.77;;
48791;SDS011;34587;48.816;9.420;2023-06-22T07:59:46;3.90;;;2.10;;
48791;SDS011;34587;48.816;9.420;2023-06-22T08:02:12;4.97;;;2.50;;
48791;SDS011;34587;48.816;9.420;2023-06-22T08:04:37;3.17;;;1.98;;
48791;SDS011;34587;48.816;9.420;2023-06-22T08:07:03;5.53;;;2.50;;
48791;SDS011;34587;48.816;9.420;2023-06-22T08:09:29;2.75;;;2.03;;
48791;SDS011;34587;48.816;9.420;2023-06-22T08:11:55;4.88;;;2.13;;
48791;SDS011;34587;48.816;9.420;2023-06-22T08:14:21;5.82;;;2.05;;
48791;SDS011;34587;48.816;9.420;2023-06-22T08:16:48;3.30;;;2.10;;
48791;SDS011;34587;48.816;9.420;2023-06-22T08:19:13;6.17;;;1.90;;
48791;SDS011;34587;48.816;9.420;2023-06-22T08:21:38;5.03;;;1.88;;
48791;SDS011;34587;48.816;9.420;2023-06-22T08:24:04;4.53;;;2.03;;
48791;SDS011;34587;48.816;9.420;2023-06-22T08:26:29;4.47;;;1.88;;
48791;SDS011;34587;48.816;9.420;2023-06-22T08:28:54;5.00;;;1.60;;
48791;SDS011;34587;48.816;9.420;2023-06-22T08:31:20;13.25;;;2.15;;
48791;SDS011;34587;48.816;9.420;2023-06-22T08:33:45;4.15;;;1.88;;
48791;SDS011;34587;48.816;9.420;2023-06-22T08:36:11;5.05;;;2.00;;
48791;SDS011;34587;48.816;9.420;2023-06-22T08:38:38;5.30;;;1.70;;
48791;SDS011;34587;48.816;9.420;2023-06-22T08:41:03;2.50;;;1.80;;
48791;SDS011;34587;48.816;9.420;2023-06-22T08:43:29;5.25;;;1.67;;
48791;SDS011;34587;48.816;9.420;2023-06-22T08:45:54;5.53;;;1.97;;
48791;SDS011;34587;48.816;9.420;2023-06-22T08:48:19;3.97;;;1.70;;
48791;SDS011;34587;48.816;9.420;2023-06-22T08:50:44;3.77;;;1.73;;
48791;SDS011;34587;48.816;9.420;2023-06-22T08:53:10;3.88;;;1.52;;
48791;SDS011;34587;48.816;9.420;2023-06-22T08:55:35;4.50;;;1.80;;
48791;SDS011;34587;48.816;9.420;2023-06-22T08:58:00;5.13;;;1.73;;
48791;SDS011;34587;48.816;9.420;2023-06-22T09:00:26;7.45;;;2.00;;
48791;SDS011;34587;48.816;9.420;2023-06-22T09:02:52;2.50;;;1.88;;
48791;SDS011;34587;48.816;9.420;2023-06-22T09:05:17;6.63;;;2.47;;
48791;SDS011;34587;48.816;9.420;2023-06-22T09:07:43;6.93;;;2.40;;
48791;SDS011;34587;48.816;9.420;2023-06-22T09:10:08;4.13;;;2.50;;
48791;SDS011;34587;48.816;9.420;2023-06-22T09:12:34;4.57;;;1.85;;
48791;SDS011;34587;48.816;9.420;2023-06-22T09:14:59;4.50;;;2.38;;
48791;SDS011;34587;48.816;9.420;2023-06-22T09:17:25;3.97;;;1.98;;
48791;SDS011;34587;48.816;9.420;2023-06-22T09:19:51;5.82;;;2.13;;
48791;SDS011;34587;48.816;9.420;2023-06-22T09:22:17;4.13;;;1.70;;
48791;SDS011;34587;48.816;9.420;2023-06-22T09:24:42;4.82;;;2.20;;
48791;SDS011;34587;48.816;9.420;2023-06-22T09:27:07;3.38;;;1.67;;
48791;SDS011;34587;48.816;9.420;2023-06-22T09:29:33;8.07;;;1.95;;
48791;SDS011;34587;48.816;9.420;2023-06-22T09:31:58;2.20;;;1.83;;
48791;SDS011;34587;48.816;9.420;2023-06-22T09:34:24;5.22;;;2.28;;
48791;SDS011;34587;48.816;9.420;2023-06-22T09:36:50;8.25;;;1.92;;
48791;SDS011;34587;48.816;9.420;2023-06-22T09:39:15;5.70;;;2.20;;
48791;SDS011;34587;48.816;9.420;2023-06-22T09:41:40;11.93;;;2.60;;
48791;SDS011;34587;48.816;9.420;2023-06-22T09:44:06;5.33;;;2.33;;
48791;SDS011;34587;48.816;9.420;2023-06-22T09:46:31;5.13;;;1.90;;
48791;SDS011;34587;48.816;9.420;2023-06-22T09:48:56;3.30;;;1.67;;
48791;SDS011;34587;48.816;9.420;2023-06-22T09:51:22;2.53;;;1.63;;
48791;SDS011;34587;48.816;9.420;2023-06-22T09:53:48;2.60;;;1.90;;
48791;SDS011;34587;48.816;9.420;2023-06-22T09:56:15;5.03;;;2.03;;
48791;SDS011;34587;48.816;9.420;2023-06-22T09:58:41;5.88;;;1.83;;
48791;SDS011;34587;48.816;9.420;2023-06-22T10:01:07;3.15;;;1.77;;
48791;SDS011;34587;48.816;9.420;2023-06-22T10:03:32;10.30;;;2.17;;
48791;SDS011;34587;48.816;9.420;2023-06-22T10:05:58;3.77;;;1.80;;
48791;SDS011;34587;48.816;9.420;2023-06-22T10:08:23;2.90;;;1.83;;
48791;SDS011;34587;48.816;9.420;2023-06-22T10:10:48;4.40;;;2.10;;
48791;SDS011;34587;48.816;9.420;2023-06-22T10:13:13;5.50;;;2.50;;
48791;SDS011;34587;48.816;9.420;2023-06-22T10:15:39;3.50;;;1.80;;
48791;SDS011;34587;48.816;9.420;2023-06-22T10:18:05;9.43;;;2.58;;
48791;SDS011;34587;48.816;9.420;2023-06-22T10:20:30;9.07;;;3.57;;
48791;SDS011;34587;48.816;9.420;2023-06-22T10:22:56;8.15;;;2.13;;
48791;SDS011;34587;48.816;9.420;2023-06-22T10:25:21;6.40;;;2.45;;
48791;SDS011;34587;48.816;9.420;2023-06-22T10:27:47;8.73;;;2.67;;
48791;SDS011;34587;48.816;9.420;2023-06-22T10:30:12;5.10;;;2.10;;
48791;SDS011;34587;48.816;9.420;2023-06-22T10:32:38;7.15;;;2.45;;
48791;SDS011;34587;48.816;9.420;2023-06-22T10:35:05;4.32;;;2.13;;
48791;SDS011;34587;48.816;9.420;2023-06-22T10:37:31;6.82;;;2.88;;
48791;SDS011;34587;48.816;9.420;2023-06-22T10:39:56;7.45;;;2.53;;
48791;SDS011;34587;48.816;9.420;2023-06-22T10:42:22;10.25;;;2.65;;
48791;SDS011;34587;48.816;9.420;2023-06-22T10:44:47;5.57;;;2.40;;
48791;SDS011;34587;48.816;9.420;2023-06-22T10:47:13;7.50;;;2.30;;
48791;SDS011;34587;48.816;9.420;2023-06-22T10:49:38;6.25;;;2.20;;
48791;SDS011;34587;48.816;9.420;2023-06-22T10:52:05;7.78;;;2.25;;
48791;SDS011;34587;48.816;9.420;2023-06-22T10:54:32;5.13;;;2.30;;
48791;SDS011;34587;48.816;9.420;2023-06-22T10:56:58;5.72;;;2.67;;
48791;SDS011;34587;48.816;9.420;2023-06-22T10:59:24;6.68;;;2.38;;
48791;SDS011;34587;48.816;9.420;2023-06-22T11:01:50;4.43;;;2.58;;
48791;SDS011;34587;48.816;9.420;2023-06-22T11:04:16;7.25;;;3.08;;
48791;SDS011;34587;48.816;9.420;2023-06-22T11:06:42;5.60;;;2.22;;
48791;SDS011;34587;48.816;9.420;2023-06-22T11:09:08;4.88;;;2.38;;
48791;SDS011;34587;48.816;9.420;2023-06-22T11:11:33;11.35;;;2.90;;
48791;SDS011;34587;48.816;9.420;2023-06-22T11:13:58;5.88;;;3.25;;
48791;SDS011;34587;48.816;9.420;2023-06-22T11:16:24;9.67;;;2.90;;
48791;SDS011;34587;48.816;9.420;2023-06-22T11:18:49;5.65;;;2.35;;
48791;SDS011;34587;48.816;9.420;2023-06-22T11:21:14;6.10;;;2.35;;
48791;SDS011;34587;48.816;9.420;2023-06-22T11:23:41;5.32;;;2.08;;
48791;SDS011;34587;48.816;9.420;2023-06-22T11:26:07;6.22;;;2.65;;
48791;SDS011;34587;48.816;9.420;2023-06-22T11:28:32;6.28;;;1.90;;
48791;SDS011;34587;48.816;9.420;2023-06-22T11:30:58;4.65;;;2.55;;
48791;SDS011;34587;48.816;9.420;2023-06-22T11:33:23;3.83;;;1.98;;
48791;SDS011;34587;48.816;9.420;2023-06-22T11:35:49;5.05;;;3.17;;
48791;SDS011;34587;48.816;9.420;2023-06-22T11:38:14;6.50;;;2.50;;
48791;SDS011;34587;48.816;9.420;2023-06-22T11:40:39;8.35;;;2.63;;
48791;SDS011;34587;48.816;9.420;2023-06-22T11:43:05;13.63;;;2.27;;
48791;SDS011;34587;48.816;9.420;2023-06-22T11:45:30;6.25;;;2.42;;
48791;SDS011;34587;48.816;9.420;2023-06-22T11:47:55;6.70;;;2.57;;
48791;SDS011;34587;48.816;9.420;2023-06-22T11:50:21;5.03;;;2.50;;
48791;SDS011;34587;48.816;9.420;2023-06-22T11:52:46;4.68;;;2.50;;
48791;SDS011;34587;48.816;9.420;2023-06-22T11:55:11;6.73;;;2.20;;
48791;SDS011;34587;48.816;9.420;2023-06-22T11:57:39;7.63;;;3.17;;
48791;SDS011;34587;48.816;9.420;2023-06-22T12:00:18;3.25;;;2.10;;
48791;SDS011;34587;48.816;9.420;2023-06-22T12:02:44;6.25;;;2.75;;
48791;SDS011;34587;48.816;9.420;2023-06-22T12:05:10;7.03;;;2.78;;
48791;SDS011;34587;48.816;9.420;2023-06-22T12:07:35;10.38;;;2.78;;
48791;SDS011;34587;48.816;9.420;2023-06-22T12:10:01;12.05;;;2.92;;
48791;SDS011;34587;48.816;9.420;2023-06-22T12:12:27;8.18;;;3.15;;
48791;SDS011;34587;48.816;9.420;2023-06-22T12:14:52;5.83;;;2.80;;
48791;SDS011;34587;48.816;9.420;2023-06-22T12:17:17;9.40;;;3.50;;
48791;SDS011;34587;48.816;9.420;2023-06-22T12:19:43;6.97;;;3.20;;
48791;SDS011;34587;48.816;9.420;2023-06-22T12:22:08;11.10;;;2.63;;
48791;SDS011;34587;48.816;9.420;2023-06-22T12:24:33;10.90;;;3.90;;
48791;SDS011;34587;48.816;9.420;2023-06-22T12:26:58;8.37;;;3.33;;
48791;SDS011;34587;48.816;9.420;2023-06-22T12:29:24;11.18;;;2.72;;
48791;SDS011;34587;48.816;9.420;2023-06-22T12:31:49;6.40;;;2.37;;
48791;SDS011;34587;48.816;9.420;2023-06-22T12:34:14;7.43;;;2.47;;
48791;SDS011;34587;48.816;9.420;2023-06-22T12:36:40;6.70;;;3.47;;
48791;SDS011;34587;48.816;9.420;2023-06-22T12:39:05;8.23;;;2.97;;
48791;SDS011;34587;48.816;9.420;2023-06-22T12:41:31;8.63;;;2.55;;
48791;SDS011;34587;48.816;9.420;2023-06-22T12:43:57;4.10;;;2.65;;
48791;SDS011;34587;48.816;9.420;2023-06-22T12:46:22;11.85;;;3.53;;
48791;SDS011;34587;48.816;9.420;2023-06-22T12:48:47;9.07;;;3.03;;
48791;SDS011;34587;48.816;9.420;2023-06-22T12:51:19;8.57;;;2.83;;
48791;SDS011;34587;48.816;9.420;2023-06-22T12:53:46;8.38;;;3.05;;
48791;SDS011;34587;48.816;9.420;2023-06-22T12:56:11;10.23;;;2.70;;
48791;SDS011;34587;48.816;9.420;2023-06-22T12:58:37;6.13;;;3.43;;
48791;SDS011;34587;48.816;9.420;2023-06-22T13:01:02;12.73;;;4.53;;
48791;SDS011;34587;48.816;9.420;2023-06-22T13:03:27;11.43;;;5.07;;
48791;SDS011;34587;48.816;9.420;2023-06-22T13:05:53;6.97;;;3.43;;
48791;SDS011;34587;48.816;9.420;2023-06-22T13:08:18;6.50;;;3.22;;
48791;SDS011;34587;48.816;9.420;2023-06-22T13:10:44;10.10;;;3.00;;
48791;SDS011;34587;48.816;9.420;2023-06-22T13:13:09;7.93;;;3.38;;
48791;SDS011;34587;48.816;9.420;2023-06-22T13:15:34;6.90;;;3.20;;
48791;SDS011;34587;48.816;9.420;2023-06-22T13:18:00;9.23;;;3.47;;
48791;SDS011;34587;48.816;9.420;2023-06-22T13:20:25;5.70;;;3.03;;
48791;SDS011;34587;48.816;9.420;2023-06-22T13:22:50;6.20;;;2.60;;
48791;SDS011;34587;48.816;9.420;2023-06-22T13:25:16;6.65;;;2.70;;
48791;SDS011;34587;48.816;9.420;2023-06-22T13:27:44;7.55;;;3.17;;
48791;SDS011;34587;48.816;9.420;2023-06-22T13:30:09;6.03;;;2.63;;
48791;SDS011;34587;48.816;9.420;2023-06-22T13:32:35;8.02;;;3.95;;
48791;SDS011;34587;48.816;9.420;2023-06-22T13:35:01;14.90;;;3.03;;
48791;SDS011;34587;48.816;9.420;2023-06-22T13:37:26;9.38;;;3.70;;
48791;SDS011;34587;48.816;9.420;2023-06-22T13:39:52;7.68;;;2.72;;
48791;SDS011;34587;48.816;9.420;2023-06-22T13:42:17;6.45;;;3.08;;
48791;SDS011;34587;48.816;9.420;2023-06-22T13:44:43;6.63;;;3.30;;
48791;SDS011;34587;48.816;9.420;2023-06-22T13:47:08;6.22;;;3.40;;
48791;SDS011;34587;48.816;9.420;2023-06-22T13:49:34;13.07;;;2.95;;
48791;SDS011;34587;48.816;9.420;2023-06-22T13:51:59;12.70;;;3.92;;
48791;SDS011;34587;48.816;9.420;2023-06-22T13:54:24;6.75;;;3.00;;
48791;SDS011;34587;48.816;9.420;2023-06-22T13:56:50;9.27;;;3.90;;
48791;SDS011;34587;48.816;9.420;2023-06-22T13:59:15;11.80;;;3.75;;
48791;SDS011;34587;48.816;9.420;2023-06-22T14:01:40;6.50;;;2.77;;
48791;SDS011;34587;48.816;9.420;2023-06-22T14:04:06;11.55;;;3.03;;
48791;SDS011;34587;48.816;9.420;2023-06-22T14:06:32;12.93;;;3.30;;
48791;SDS011;34587;48.816;9.420;2023-06-22T14:08:57;7.57;;;2.70;;
48791;SDS011;34587;48.816;9.420;2023-06-22T14:11:22;15.38;;;2.88;;
48791;SDS011;34587;48.816;9.420;2023-06-22T14:13:48;10.43;;;3.70;;
48791;SDS011;34587;48.816;9.420;2023-06-22T14:16:13;7.78;;;2.42;;
48791;SDS011;34587;48.816;9.420;2023-06-22T14:18:38;6.88;;;3.17;;
48791;SDS011;34587;48.816;9.420;2023-06-22T14:21:04;7.00;;;3.00;;
48791;SDS011;34587;48.816;9.420;2023-06-22T14:23:29;10.57;;;2.92;;
48791;SDS011;34587;48.816;9.420;2023-06-22T14:25:55;5.13;;;2.58;;
48791;SDS011;34587;48.816;9.420;2023-06-22T14:28:20;7.93;;;2.47;;
48791;SDS011;34587;48.816;9.420;2023-06-22T14:30:45;7.05;;;2.53;;
48791;SDS011;34587;48.816;9.420;2023-06-22T14:33:11;11.60;;;3.50;;
48791;SDS011;34587;48.816;9.420;2023-06-22T14:35:37;13.68;;;2.45;;
48791;SDS011;34587;48.816;9.420;2023-06-22T14:38:02;7.93;;;2.95;;
48791;SDS011;34587;48.816;9.420;2023-06-22T14:40:28;6.07;;;2.10;;
48791;SDS011;34587;48.816;9.420;2023-06-22T14:42:53;8.23;;;2.42;;
48791;SDS011;34587;48.816;9.420;2023-06-22T14:45:18;7.57;;;2.58;;
48791;SDS011;34587;48.816;9.420;2023-06-22T14:47:44;12.52;;;2.33;;
48791;SDS011;34587;48.816;9.420;2023-06-22T14:50:09;7.47;;;2.33;;
48791;SDS011;34587;48.816;9.420;2023-06-22T14:52:34;9.65;;;2.63;;
48791;SDS011;34587;48.816;9.420;2023-06-22T14:55:00;9.10;;;2.93;;
48791;SDS011;34587;48.816;9.420;2023-06-22T14:57:25;8.73;;;3.17;;
48791;SDS011;34587;48.816;9.420;2023-06-22T14:59:50;11.23;;;2.30;;
48791;SDS011;34587;48.816;9.420;2023-06-22T15:02:16;6.10;;;3.15;;
48791;SDS011;34587;48.816;9.420;2023-06-22T15:04:42;5.95;;;2.55;;
48791;SDS011;34587;48.816;9.420;2023-06-22T15:07:07;5.63;;;2.53;;
48791;SDS011;34587;48.816;9.420;2023-06-22T15:09:33;8.27;;;1.90;;
48791;SDS011;34587;48.816;9.420;2023-06-22T15:11:58;7.13;;;2.05;;
48791;SDS011;34587;48.816;9.420;2023-06-22T15:14:26;7.53;;;1.98;;
48791;SDS011;34587;48.816;9.420;2023-06-22T15:16:52;5.70;;;1.98;;
48791;SDS011;34587;48.816;9.420;2023-06-22T15:19:17;5.80;;;3.58;;
48791;SDS011;34587;48.816;9.420;2023-06-22T15:21:43;6.57;;;1.83;;
48791;SDS011;34587;48.816;9.420;2023-06-22T15:24:08;9.05;;;3.13;;
48791;SDS011;34587;48.816;9.420;2023-06-22T15:26:33;10.02;;;2.50;;
48791;SDS011;34587;48.816;9.420;2023-06-22T15:28:59;7.88;;;2.60;;
48791;SDS011;34587;48.816;9.420;2023-06-22T15:31:25;6.18;;;2.58;;
48791;SDS011;34587;48.816;9.420;2023-06-22T15:33:51;3.70;;;2.20;;
48791;SDS011;34587;48.816;9.420;2023-06-22T15:36:17;9.90;;;2.25;;
48791;SDS011;34587;48.816;9.420;2023-06-22T15:38:42;9.10;;;2.35;;
48791;SDS011;34587;48.816;9.420;2023-06-22T15:41:07;7.43;;;2.03;;
48791;SDS011;34587;48.816;9.420;2023-06-22T15:43:32;5.40;;;1.87;;
48791;SDS011;34587;48.816;9.420;2023-06-22T15:45:58;13.00;;;1.92;;
48791;SDS011;34587;48.816;9.420;2023-06-22T15:48:23;5.30;;;1.50;;
48791;SDS011;34587;48.816;9.420;2023-06-22T15:50:48;13.00;;;3.03;;
48791;SDS011;34587;48.816;9.420;2023-06-22T15:53:14;5.20;;;2.10;;
48791;SDS011;34587;48.816;9.420;2023-06-22T15:55:39;8.70;;;1.95;;
48791;SDS011;34587;48.816;9.420;2023-06-22T15:58:04;5.05;;;1.73;;
48791;SDS011;34587;48.816;9.420;2023-06-22T16:00:30;6.28;;;1.60;;
48791;SDS011;34587;48.816;9.420;2023-06-22T16:02:55;4.07;;;2.20;;
48791;SDS011;34587;48.816;9.420;2023-06-22T16:05:20;4.72;;;1.67;;
48791;SDS011;34587;48.816;9.420;2023-06-22T16:07:46;11.63;;;2.95;;
48791;SDS011;34587;48.816;9.420;2023-06-22T16:10:11;16.08;;;2.38;;
48791;SDS011;34587;48.816;9.420;2023-06-22T16:12:41;5.50;;;1.70;;
48791;SDS011;34587;48.816;9.420;2023-06-22T16:15:07;5.95;;;1.88;;
48791;SDS011;34587;48.816;9.420;2023-06-22T16:17:33;6.57;;;3.10;;
48791;SDS011;34587;48.816;9.420;2023-06-22T16:20:02;12.32;;;2.10;;
48791;SDS011;34587;48.816;9.420;2023-06-22T16:22:31;6.93;;;1.88;;
48791;SDS011;34587;48.816;9.420;2023-06-22T16:24:56;6.22;;;2.15;;
48791;SDS011;34587;48.816;9.420;2023-06-22T16:27:23;10.85;;;2.05;;
48791;SDS011;34587;48.816;9.420;2023-06-22T16:29:49;10.50;;;2.05;;
48791;SDS011;34587;48.816;9.420;2023-06-22T16:32:15;9.50;;;2.25;;
48791;SDS011;34587;48.816;9.420;2023-06-22T16:34:42;11.27;;;2.42;;
48791;SDS011;34587;48.816;9.420;2023-06-22T16:37:07;6.70;;;1.77;;
48791;SDS011;34587;48.816;9.420;2023-06-22T16:39:33;5.93;;;1.80;;
48791;SDS011;34587;48.816;9.420;2023-06-22T16:41:58;14.17;;;3.07;;
48791;SDS011;34587;48.816;9.420;2023-06-22T16:44:23;6.60;;;2.00;;
48791;SDS011;34587;48.816;9.420;2023-06-22T16:46:48;5.87;;;2.83;;
48791;SDS011;34587;48.816;9.420;2023-06-22T16:49:14;5.37;;;2.40;;
48791;SDS011;34587;48.816;9.420;2023-06-22T16:51:39;11.85;;;2.00;;
48791;SDS011;34587;48.816;9.420;2023-06-22T16:54:04;9.17;;;1.93;;
48791;SDS011;34587;48.816;9.420;2023-06-22T16:56:30;6.13;;;2.10;;
48791;SDS011;34587;48.816;9.420;2023-06-22T16:58:57;5.35;;;1.75;;
48791;SDS011;34587;48.816;9.420;2023-06-22T17:01:23;7.35;;;1.88;;
48791;SDS011;34587;48.816;9.420;2023-06-22T17:03:56;2.55;;;1.55;;
48791;SDS011;34587;48.816;9.420;2023-06-22T17:06:29;6.85;;;2.28;;
48791;SDS011;34587;48.816;9.420;2023-06-22T17:08:56;7.38;;;2.15;;
48791;SDS011;34587;48.816;9.420;2023-06-22T17:11:30;4.60;;;1.63;;
48791;SDS011;34587;48.816;9.420;2023-06-22T17:13:57;3.80;;;2.45;;
48791;SDS011;34587;48.816;9.420;2023-06-22T17:16:23;5.70;;;1.90;;
48791;SDS011;34587;48.816;9.420;2023-06-22T17:18:50;6.43;;;1.65;;
48791;SDS011;34587;48.816;9.420;2023-06-22T17:21:20;4.93;;;2.22;;
48791;SDS011;34587;48.816;9.420;2023-06-22T17:23:47;6.53;;;2.17;;
48791;SDS011;34587;48.816;9.420;2023-06-22T17:26:13;7.22;;;2.05;;
48791;SDS011;34587;48.816;9.420;2023-06-22T17:29:13;4.38;;;1.58;;
48791;SDS011;34587;48.816;9.420;2023-06-22T17:31:36;5.78;;;2.35;;
48791;SDS011;34587;48.816;9.420;2023-06-22T17:34:10;7.28;;;1.77;;
48791;SDS011;34587;48.816;9.420;2023-06-22T17:36:46;4.10;;;2.08;;
48791;SDS011;34587;48.816;9.420;2023-06-22T17:39:19;7.20;;;1.98;;
48791;SDS011;34587;48.816;9.420;2023-06-22T17:41:46;6.00;;;2.00;;
48791;SDS011;34587;48.816;9.420;2023-06-22T17:44:13;3.40;;;2.33;;
48791;SDS011;34587;48.816;9.420;2023-06-22T17:46:42;6.70;;;2.08;;
48791;SDS011;34587;48.816;9.420;2023-06-22T17:49:08;7.80;;;2.58;;
48791;SDS011;34587;48.816;9.420;2023-06-22T17:51:35;7.78;;;1.60;;
48791;SDS011;34587;48.816;9.420;2023-06-22T17:54:04;14.57;;;2.00;;
48791;SDS011;34587;48.816;9.420;2023-06-22T17:56:29;8.57;;;2.03;;
48791;SDS011;34587;48.816;9.420;2023-06-22T17:58:54;4.07;;;1.67;;
48791;SDS011;34587;48.816;9.420;2023-06-22T18:01:30;4.88;;;2.17;;
48791;SDS011;34587;48.816;9.420;2023-06-22T18:03:58;4.70;;;1.60;;
48791;SDS011;34587;48.816;9.420;2023-06-22T18:06:26;6.45;;;1.90;;
48791;SDS011;34587;48.816;9.420;2023-06-22T18:08:59;4.10;;;1.63;;
48791;SDS011;34587;48.816;9.420;2023-06-22T18:11:28;3.38;;;1.90;;
48791;SDS011;34587;48.816;9.420;2023-06-22T18:13:57;3.10;;;1.40;;
48791;SDS011;34587;48.816;9.420;2023-06-22T18:16:24;10.02;;;1.75;;
48791;SDS011;34587;48.816;9.420;2023-06-22T18:18:51;4.35;;;1.52;;
48791;SDS011;34587;48.816;9.420;2023-06-22T18:21:16;6.72;;;1.40;;
48791;SDS011;34587;48.816;9.420;2023-06-22T18:23:42;5.28;;;1.65;;
48791;SDS011;34587;48.816;9.420;2023-06-22T18:26:09;6.32;;;1.50;;
48791;SDS011;34587;48.816;9.420;2023-06-22T18:28:35;5.57;;;1.70;;
48791;SDS011;34587;48.816;9.420;2023-06-22T18:31:00;7.10;;;2.33;;
48791;SDS011;34587;48.816;9.420;2023-06-22T18:33:27;3.42;;;1.83;;
48791;SDS011;34587;48.816;9.420;2023-06-22T18:35:53;3.00;;;1.42;;
48791;SDS011;34587;48.816;9.420;2023-06-22T18:38:20;6.07;;;1.80;;
48791;SDS011;34587;48.816;9.420;2023-06-22T18:40:51;8.73;;;1.60;;
48791;SDS011;34587;48.816;9.420;2023-06-22T18:43:20;8.82;;;2.22;;
48791;SDS011;34587;48.816;9.420;2023-06-22T18:45:46;8.20;;;1.40;;
48791;SDS011;34587;48.816;9.420;2023-06-22T18:48:12;12.18;;;4.53;;
48791;SDS011;34587;48.816;9.420;2023-06-22T18:50:41;1.85;;;1.20;;
48791;SDS011;34587;48.816;9.420;2023-06-22T18:53:15;6.10;;;1.85;;